createdAt,value
2022-12-28T00:00:39.607Z,5.20
2022-12-28T00:01:48.702Z,6.90
2022-12-28T00:02:57.762Z,6.03
2022-12-28T00:04:06.585Z,6.85
2022-12-28T00:06:34.077Z,6.30
2022-12-28T00:07:43.104Z,6.55
2022-12-28T00:08:56.602Z,5.67
2022-12-28T00:10:06.778Z,6.75
2022-12-28T00:12:36.376Z,10.83
2022-12-28T00:13:45.611Z,5.67
2022-12-28T00:14:54.439Z,8.97
2022-12-28T00:17:28.848Z,7.55
2022-12-28T00:18:38.318Z,7.35
2022-12-28T00:19:47.472Z,8.20
2022-12-28T00:21:01.235Z,8.75
2022-12-28T00:22:11.798Z,8.72
2022-12-28T00:23:20.919Z,7.55
2022-12-28T00:24:30.886Z,7.13
2022-12-28T00:25:39.974Z,8.35
2022-12-28T00:26:50.425Z,8.30
2022-12-28T00:27:59.517Z,7.75
2022-12-28T00:29:08.956Z,8.03
2022-12-28T00:30:20.244Z,6.10
2022-12-28T00:31:30.459Z,6.40
2022-12-28T00:32:40.116Z,8.20
2022-12-28T00:33:49.898Z,8.78
2022-12-28T00:34:58.523Z,5.82
2022-12-28T00:36:12.544Z,9.80
2022-12-28T00:37:21.371Z,7.95
2022-12-28T00:38:32.372Z,8.62
2022-12-28T00:39:42.200Z,6.88
2022-12-28T00:40:52.417Z,8.90
2022-12-28T00:42:02.086Z,6.08
2022-12-28T00:44:22.613Z,6.92
2022-12-28T00:45:31.196Z,6.88
2022-12-28T00:46:40.506Z,5.90
2022-12-28T00:47:49.148Z,4.97
2022-12-28T00:48:58.159Z,6.90
2022-12-28T00:50:09.905Z,3.70
2022-12-28T00:51:21.324Z,6.70
2022-12-28T00:52:32.339Z,6.60
2022-12-28T00:53:41.916Z,5.68
2022-12-28T00:54:51.548Z,6.65
2022-12-28T00:56:12.443Z,7.93
2022-12-28T00:58:31.497Z,5.27
2022-12-28T00:59:40.389Z,6.48
2022-12-28T01:02:05.053Z,7.65
2022-12-28T01:03:14.005Z,5.98
2022-12-28T01:04:22.584Z,7.03
2022-12-28T01:05:33.255Z,9.05
2022-12-28T01:06:42.288Z,8.43
2022-12-28T01:07:53.125Z,6.20
2022-12-28T01:10:19.034Z,8.92
2022-12-28T01:11:30.196Z,6.68
2022-12-28T01:12:38.956Z,7.73
2022-12-28T01:13:50.177Z,8.10
2022-12-28T01:15:00.399Z,9.10
2022-12-28T01:16:28.664Z,7.42
2022-12-28T01:19:01.898Z,7.87
2022-12-28T01:20:11.560Z,6.90
2022-12-28T01:21:23.304Z,6.47
2022-12-28T01:22:33.952Z,10.28
2022-12-28T01:23:45.655Z,5.72
2022-12-28T01:24:55.294Z,8.23
2022-12-28T01:26:05.991Z,7.00
2022-12-28T01:27:15.815Z,7.40
2022-12-28T01:28:24.339Z,8.97
2022-12-28T01:29:34.325Z,6.08
2022-12-28T01:30:43.474Z,8.30
2022-12-28T01:31:52.138Z,6.30
2022-12-28T01:33:00.829Z,5.45
2022-12-28T01:34:11.014Z,4.45
2022-12-28T01:35:19.914Z,6.17
2022-12-28T01:36:32.671Z,5.03
2022-12-28T01:37:41.726Z,7.78
2022-12-28T01:38:56.893Z,6.08
2022-12-28T01:41:24.487Z,7.37
2022-12-28T01:43:53.951Z,4.97
2022-12-28T01:45:17.294Z,6.50
2022-12-28T01:47:57.965Z,9.42
2022-12-28T01:49:10.271Z,6.03
2022-12-28T01:50:23.267Z,7.15
2022-12-28T01:51:36.207Z,7.30
2022-12-28T01:54:09.200Z,8.20
2022-12-28T01:55:34.703Z,8.95
2022-12-28T01:56:51.146Z,5.73
2022-12-28T01:58:06.849Z,7.50
2022-12-28T01:59:18.897Z,8.35
2022-12-28T02:00:29.116Z,8.72
2022-12-28T02:01:39.044Z,6.37
2022-12-28T02:04:08.842Z,7.02
2022-12-28T02:05:19.400Z,6.15
2022-12-28T02:06:29.550Z,5.40
2022-12-28T02:09:08.779Z,7.10
2022-12-28T02:10:43.684Z,5.67
2022-12-28T02:11:31.035Z,9.93
2022-12-28T02:12:41.002Z,8.47
2022-12-28T02:13:52.646Z,7.40
2022-12-28T02:15:02.864Z,6.67
2022-12-28T02:17:27.901Z,5.87
2022-12-28T02:18:37.743Z,8.23
2022-12-28T02:19:49.070Z,9.95
2022-12-28T02:21:13.369Z,7.68
2022-12-28T02:22:34.871Z,9.17
2022-12-28T02:24:08.362Z,6.18
2022-12-28T02:25:43.397Z,6.10
2022-12-28T02:26:59.056Z,6.97
2022-12-28T02:28:27.123Z,10.70
2022-12-28T02:29:45.987Z,7.28
2022-12-28T02:30:58.811Z,7.63
2022-12-28T02:32:25.526Z,7.22
2022-12-28T02:33:42.836Z,5.82
2022-12-28T02:35:01.639Z,4.87
2022-12-28T02:37:47.862Z,5.73
2022-12-28T02:39:00.637Z,4.27
2022-12-28T02:40:15.277Z,6.68
2022-12-28T02:41:26.286Z,7.62
2022-12-28T02:42:38.058Z,6.75
2022-12-28T02:43:47.565Z,7.10
2022-12-28T02:45:36.834Z,8.92
2022-12-28T02:47:04.923Z,9.12
2022-12-28T02:48:33.184Z,6.28
2022-12-28T02:50:01.494Z,9.08
2022-12-28T02:51:23.811Z,6.13
2022-12-28T02:52:49.613Z,6.30
2022-12-28T02:55:56.375Z,8.10
2022-12-28T02:57:16.756Z,8.23
2022-12-28T02:58:33.042Z,7.50
2022-12-28T03:01:54.695Z,6.52
2022-12-28T03:03:16.933Z,11.72
2022-12-28T03:04:31.107Z,8.83
2022-12-28T03:06:19.112Z,8.42
2022-12-28T03:07:48.467Z,7.18
2022-12-28T03:11:54.617Z,6.13
2022-12-28T03:15:49.287Z,5.97
2022-12-28T03:18:46.099Z,6.60
2022-12-28T03:20:20.951Z,8.05
2022-12-28T03:21:50.820Z,7.60
2022-12-28T03:23:21.113Z,8.50
2022-12-28T03:24:51.090Z,6.55
2022-12-28T03:26:23.729Z,8.23
2022-12-28T03:27:53.627Z,5.17
2022-12-28T03:29:25.075Z,7.37
2022-12-28T03:30:55.599Z,6.62
2022-12-28T03:32:07.565Z,5.25
2022-12-28T03:33:17.414Z,4.45
2022-12-28T03:34:27.229Z,7.00
2022-12-28T03:37:27.450Z,6.83
2022-12-28T03:38:43.770Z,5.10
2022-12-28T03:40:02.416Z,6.60
2022-12-28T03:41:17.652Z,6.25
2022-12-28T03:42:53.595Z,8.12
2022-12-28T03:44:25.263Z,7.15
2022-12-28T03:45:51.539Z,7.72
2022-12-28T03:47:08.742Z,8.77
2022-12-28T03:48:19.315Z,5.02
2022-12-28T03:49:31.215Z,8.12
2022-12-28T03:50:45.733Z,6.72
2022-12-28T03:51:57.742Z,5.38
2022-12-28T03:53:08.625Z,4.20
2022-12-28T03:54:20.207Z,6.95
2022-12-28T03:55:30.466Z,4.44
2022-12-28T03:57:51.411Z,6.60
2022-12-28T03:59:03.033Z,4.03
2022-12-28T04:00:21.063Z,7.37
2022-12-28T04:01:31.727Z,6.45
2022-12-28T04:02:41.134Z,6.27
2022-12-28T04:03:51.207Z,5.80
2022-12-28T04:05:00.735Z,5.68
2022-12-28T04:06:12.706Z,7.78
2022-12-28T04:07:22.337Z,6.50
2022-12-28T04:08:33.419Z,8.25
2022-12-28T04:09:42.689Z,7.33
2022-12-28T04:12:16.246Z,9.85
2022-12-28T04:14:52.574Z,9.37
2022-12-28T04:16:05.425Z,5.92
2022-12-28T04:17:15.748Z,7.82
2022-12-28T04:18:25.115Z,5.20
2022-12-28T04:19:35.600Z,4.63
2022-12-28T04:20:44.484Z,5.72
2022-12-28T04:21:54.466Z,6.87
2022-12-28T04:23:04.021Z,4.42
2022-12-28T04:24:14.889Z,4.25
2022-12-28T04:25:26.016Z,7.30
2022-12-28T04:26:35.114Z,5.37
2022-12-28T04:27:44.784Z,6.52
2022-12-28T04:28:59.183Z,5.62
2022-12-28T04:30:16.615Z,5.98
2022-12-28T04:31:25.169Z,8.30
2022-12-28T04:32:39.032Z,9.32
2022-12-28T04:33:47.841Z,7.57
2022-12-28T04:34:57.167Z,7.75
2022-12-28T04:36:15.525Z,7.35
2022-12-28T04:37:25.493Z,7.35
2022-12-28T04:38:36.196Z,6.37
2022-12-28T04:39:55.691Z,8.47
2022-12-28T04:40:56.006Z,5.20
2022-12-28T04:42:05.508Z,7.23
2022-12-28T04:43:15.124Z,6.88
2022-12-28T04:44:23.756Z,6.32
2022-12-28T04:45:32.862Z,6.55
2022-12-28T04:46:42.755Z,7.07
2022-12-28T04:47:51.482Z,7.87
2022-12-28T04:49:02.328Z,7.33
2022-12-28T04:50:11.059Z,6.63
2022-12-28T04:51:24.027Z,5.40
2022-12-28T04:52:34.880Z,6.25
2022-12-28T04:54:53.401Z,4.25
2022-12-28T04:56:05.666Z,7.20
2022-12-28T04:57:15.725Z,9.83
2022-12-28T04:58:24.667Z,6.28
2022-12-28T04:59:33.888Z,6.93
2022-12-28T05:00:43.512Z,5.33
2022-12-28T05:01:53.419Z,5.92
2022-12-28T05:03:03.553Z,5.45
2022-12-28T05:04:14.711Z,7.12
2022-12-28T05:05:23.258Z,6.20
2022-12-28T05:06:32.104Z,5.65
2022-12-28T05:07:41.119Z,6.92
2022-12-28T05:08:50.273Z,4.92
2022-12-28T05:09:59.997Z,6.48
2022-12-28T05:11:12.685Z,9.22
2022-12-28T05:12:22.431Z,8.53
2022-12-28T05:13:32.661Z,5.98
2022-12-28T05:14:45.156Z,4.88
2022-12-28T05:15:54.623Z,6.43
2022-12-28T05:17:04.530Z,4.63
2022-12-28T05:18:13.510Z,4.57
2022-12-28T05:19:23.113Z,6.30
2022-12-28T05:20:31.861Z,5.40
2022-12-28T05:21:41.722Z,6.03
2022-12-28T05:22:50.802Z,5.44
2022-12-28T05:24:00.451Z,6.17
2022-12-28T05:25:09.590Z,11.67
2022-12-28T05:26:22.133Z,6.45
2022-12-28T05:27:31.717Z,6.70
2022-12-28T05:28:40.798Z,5.55
2022-12-28T05:29:49.762Z,6.82
2022-12-28T05:31:01.426Z,5.17
2022-12-28T05:32:10.993Z,4.78
2022-12-28T05:33:22.216Z,6.10
2022-12-28T05:34:32.482Z,5.45
2022-12-28T05:35:41.569Z,5.70
2022-12-28T05:36:51.249Z,4.33
2022-12-28T05:37:59.795Z,5.53
2022-12-28T05:39:09.366Z,5.18
2022-12-28T05:40:18.486Z,5.93
2022-12-28T05:41:30.291Z,6.60
2022-12-28T05:42:39.806Z,6.20
2022-12-28T05:43:49.042Z,6.65
2022-12-28T05:45:05.170Z,6.33
2022-12-28T05:46:21.299Z,6.63
2022-12-28T05:47:31.268Z,6.50
2022-12-28T05:48:41.981Z,7.62
2022-12-28T05:52:23.069Z,6.72
2022-12-28T05:53:34.234Z,8.02
2022-12-28T05:54:43.478Z,7.77
2022-12-28T05:55:52.485Z,8.30
2022-12-28T05:57:01.237Z,5.40
2022-12-28T05:58:10.660Z,4.58
2022-12-28T05:59:19.439Z,5.63
2022-12-28T06:00:28.839Z,4.95
2022-12-28T06:01:40.387Z,5.55
2022-12-28T06:02:50.142Z,4.87
2022-12-28T06:04:08.002Z,6.00
2022-12-28T06:05:17.301Z,5.50
2022-12-28T06:06:28.096Z,5.83
2022-12-28T06:07:38.751Z,7.15
2022-12-28T06:08:49.604Z,5.95
2022-12-28T06:11:19.754Z,5.32
2022-12-28T09:01:11.651Z,5.90
2022-12-28T09:03:39.949Z,7.27
2022-12-28T09:04:49.448Z,5.54
2022-12-28T09:06:02.306Z,8.15
2022-12-28T09:07:12.046Z,9.28
2022-12-28T09:08:21.018Z,7.77
2022-12-28T09:09:29.760Z,9.75
2022-12-28T09:10:38.487Z,8.42
2022-12-28T09:11:49.144Z,8.02
2022-12-28T09:14:24.491Z,6.68
2022-12-28T09:15:27.762Z,9.30
2022-12-28T09:16:39.022Z,10.85
2022-12-28T09:17:48.145Z,9.67
2022-12-28T09:18:59.907Z,7.18
2022-12-28T09:20:10.656Z,8.62
2022-12-28T09:21:23.010Z,7.43
2022-12-28T09:22:31.958Z,6.28
2022-12-28T09:23:42.128Z,6.32
2022-12-28T09:24:52.758Z,6.47
2022-12-28T09:27:24.438Z,7.68
2022-12-28T09:28:34.307Z,5.43
2022-12-28T09:29:43.047Z,7.87
2022-12-28T09:30:51.747Z,8.70
2022-12-28T09:32:01.049Z,7.27
2022-12-28T09:33:28.548Z,6.18
2022-12-28T09:34:38.269Z,7.55
2022-12-28T09:35:47.095Z,6.92
2022-12-28T09:36:55.856Z,7.92
2022-12-28T09:38:05.783Z,8.05
2022-12-28T09:40:36.409Z,7.12
2022-12-28T09:42:04.991Z,6.45
2022-12-28T09:43:13.835Z,7.22
2022-12-28T09:44:45.786Z,4.62
2022-12-28T09:45:55.823Z,6.95
2022-12-28T09:47:19.124Z,6.00
2022-12-28T09:48:31.763Z,7.43
2022-12-28T09:51:09.544Z,7.22
2022-12-28T09:53:37.593Z,7.05
2022-12-28T09:54:46.555Z,7.87
2022-12-28T09:57:19.098Z,10.12
2022-12-28T09:58:31.024Z,6.32
2022-12-28T09:59:40.282Z,10.30
2022-12-28T10:02:29.844Z,4.63
2022-12-28T10:03:41.952Z,7.03
2022-12-28T10:04:51.372Z,7.02
2022-12-28T10:06:01.453Z,5.88
2022-12-28T10:07:13.422Z,8.48
2022-12-28T10:08:24.405Z,6.28
2022-12-28T10:09:34.170Z,10.08
2022-12-28T10:10:50.312Z,10.18
2022-12-28T10:13:53.470Z,6.92
2022-12-28T10:14:40.876Z,6.93
2022-12-28T10:15:51.159Z,7.08
2022-12-28T10:17:00.435Z,4.23
2022-12-28T10:19:29.230Z,8.55
2022-12-28T10:20:40.746Z,7.45
2022-12-28T10:22:02.980Z,7.42
2022-12-28T10:24:32.521Z,7.05
2022-12-28T10:25:41.770Z,6.87
2022-12-28T10:28:09.521Z,7.65
2022-12-28T10:30:49.850Z,5.55
2022-12-28T10:32:12.553Z,6.52
2022-12-28T10:33:22.719Z,7.50
2022-12-28T10:34:34.207Z,5.70
2022-12-28T10:35:52.799Z,7.03
2022-12-28T10:38:27.677Z,6.75
2022-12-28T10:39:37.467Z,5.75
2022-12-28T10:42:08.090Z,4.92
2022-12-28T10:43:21.955Z,6.25
2022-12-28T10:44:40.106Z,6.78
2022-12-28T10:45:52.242Z,6.32
2022-12-28T10:47:08.398Z,7.08
2022-12-28T10:48:21.167Z,8.10
2022-12-28T10:49:38.823Z,7.33
2022-12-28T10:50:57.452Z,7.75
2022-12-28T10:53:35.095Z,5.52
2022-12-28T10:54:44.161Z,7.75
2022-12-28T10:56:17.511Z,8.65
2022-12-28T10:57:30.426Z,6.70
2022-12-28T11:00:22.317Z,10.78
2022-12-28T11:02:46.700Z,7.52
2022-12-28T11:03:59.523Z,7.00
2022-12-28T11:05:12.536Z,6.68
2022-12-28T11:06:27.386Z,9.58
2022-12-28T11:07:39.502Z,8.03
2022-12-28T11:09:17.134Z,8.05
2022-12-28T11:10:30.632Z,10.05
2022-12-28T11:11:41.187Z,8.38
2022-12-28T11:12:56.507Z,6.62
2022-12-28T11:14:24.722Z,9.05
2022-12-28T11:15:34.637Z,9.65
2022-12-28T11:16:44.469Z,7.25
2022-12-28T11:17:56.593Z,5.32
2022-12-28T11:19:06.101Z,6.75
2022-12-28T11:21:42.349Z,6.45
2022-12-28T11:22:52.071Z,5.27
2022-12-28T11:24:01.290Z,5.05
2022-12-28T11:26:31.213Z,5.75
2022-12-28T11:28:52.474Z,6.87
2022-12-28T11:30:02.957Z,6.40
2022-12-28T11:31:36.806Z,11.60
2022-12-28T11:32:56.378Z,12.75
2022-12-28T11:36:47.582Z,9.53
2022-12-28T11:37:59.261Z,9.78
2022-12-28T11:39:30.567Z,7.75
2022-12-28T11:43:34.925Z,6.62
2022-12-28T11:46:00.510Z,6.03
2022-12-28T11:48:40.649Z,9.55
2022-12-28T11:49:49.275Z,7.63
2022-12-28T11:51:04.875Z,12.45
2022-12-28T11:52:23.112Z,7.32
2022-12-28T11:53:35.447Z,8.35
2022-12-28T11:56:12.879Z,10.88
2022-12-28T11:57:38.252Z,5.00
2022-12-28T11:59:03.791Z,7.10
2022-12-28T12:01:41.318Z,5.10
2022-12-28T12:03:02.445Z,4.58
2022-12-28T12:05:41.951Z,5.52
2022-12-28T12:06:57.173Z,6.60
2022-12-28T12:08:18.572Z,6.90
2022-12-28T12:11:11.043Z,6.15
2022-12-28T12:12:23.819Z,6.02
2022-12-28T12:13:40.127Z,7.12
2022-12-28T12:17:57.137Z,6.25
2022-12-28T12:19:08.484Z,9.68
2022-12-28T12:20:29.964Z,6.92
2022-12-28T12:24:25.553Z,7.93
2022-12-28T12:27:10.278Z,6.10
2022-12-28T12:28:34.384Z,6.93
2022-12-28T12:31:35.088Z,5.65
2022-12-28T12:32:50.164Z,5.26
2022-12-28T12:35:27.461Z,5.10
2022-12-28T12:37:12.291Z,3.63
2022-12-28T12:40:16.385Z,4.97
2022-12-28T12:41:57.740Z,5.80
2022-12-28T12:44:58.726Z,8.07
2022-12-28T12:46:31.303Z,6.10
2022-12-28T12:48:04.141Z,6.25
2022-12-28T12:49:32.802Z,6.12
2022-12-28T12:50:58.494Z,5.92
2022-12-28T12:52:17.207Z,7.18
2022-12-28T12:55:23.097Z,6.90
2022-12-28T12:56:47.775Z,5.15
2022-12-28T12:58:16.838Z,5.68
2022-12-28T12:59:45.946Z,4.78
2022-12-28T13:01:07.242Z,4.37
2022-12-28T13:02:37.321Z,6.53
2022-12-28T13:03:50.277Z,4.32
2022-12-28T13:05:02.488Z,8.37
2022-12-28T13:07:31.227Z,9.55
2022-12-28T13:08:44.543Z,8.77
2022-12-28T13:11:13.887Z,10.72
2022-12-28T13:12:24.746Z,6.60
2022-12-28T13:13:37.709Z,7.15
2022-12-28T13:16:09.361Z,4.28
2022-12-28T13:17:21.795Z,5.08
2022-12-28T13:18:46.809Z,6.08
2022-12-28T13:19:42.865Z,5.43
2022-12-28T13:22:32.085Z,5.35
2022-12-28T13:23:45.666Z,6.17
2022-12-28T13:24:54.351Z,6.18
2022-12-28T13:26:03.443Z,6.10
2022-12-28T13:27:20.389Z,6.10
2022-12-28T13:28:36.653Z,7.12
2022-12-28T13:29:51.992Z,8.75
2022-12-28T13:31:16.747Z,6.58
2022-12-28T13:32:32.754Z,5.33
2022-12-28T13:33:40.959Z,4.07
2022-12-28T13:37:28.137Z,7.73
2022-12-28T13:38:39.367Z,7.38
2022-12-28T13:39:49.897Z,6.60
2022-12-28T13:40:59.411Z,9.93
2022-12-28T13:42:29.291Z,7.45
2022-12-28T13:44:08.975Z,6.55
2022-12-28T13:45:20.846Z,5.72
2022-12-28T13:46:31.132Z,5.37
2022-12-28T13:49:00.968Z,7.33
2022-12-28T13:50:19.635Z,5.88
2022-12-28T13:51:29.675Z,5.73
2022-12-28T13:52:54.959Z,7.15
2022-12-28T13:55:43.554Z,6.23
2022-12-28T13:57:14.674Z,20.90
2022-12-28T13:59:29.015Z,7.30
2022-12-28T14:00:39.903Z,7.28
2022-12-28T14:03:27.037Z,5.15
2022-12-28T14:05:55.573Z,8.83
2022-12-28T14:08:23.421Z,6.52
2022-12-28T14:10:49.943Z,7.43
2022-12-28T14:11:59.755Z,9.10
2022-12-28T14:14:26.141Z,12.40
2022-12-28T14:15:41.149Z,12.18
2022-12-28T14:16:47.421Z,12.25
2022-12-28T14:17:56.963Z,10.15
2022-12-28T14:19:07.753Z,10.92
2022-12-28T14:20:17.210Z,10.82
2022-12-28T14:21:33.925Z,12.88
2022-12-28T14:24:07.137Z,10.38
2022-12-28T14:25:18.773Z,10.43
2022-12-28T14:26:30.432Z,9.20
2022-12-28T14:28:05.189Z,11.10
2022-12-28T14:30:42.806Z,11.87
2022-12-28T14:31:58.844Z,9.92
2022-12-28T14:33:24.979Z,13.55
2022-12-28T14:34:37.420Z,11.43
2022-12-28T14:35:49.364Z,12.67
2022-12-28T14:37:00.005Z,14.07
2022-12-28T14:38:14.288Z,10.85
2022-12-28T14:39:31.838Z,11.72
2022-12-28T14:40:41.194Z,11.77
2022-12-28T14:41:51.511Z,12.50
2022-12-28T14:43:04.005Z,15.40
2022-12-28T14:46:56.274Z,14.85
2022-12-28T14:49:47.912Z,13.42
2022-12-28T14:52:36.795Z,14.25
2022-12-28T14:53:45.625Z,10.88
2022-12-28T14:59:00.541Z,18.37
2022-12-28T15:00:16.459Z,15.47
2022-12-28T15:00:31.819Z,15.80
2022-12-28T15:04:28.573Z,14.45
2022-12-28T15:05:43.978Z,14.62
2022-12-28T15:06:54.402Z,16.48
2022-12-28T15:08:04.734Z,24.10
2022-12-28T15:09:14.027Z,32.75
2022-12-28T15:10:23.056Z,22.02
2022-12-28T15:11:32.883Z,24.27
2022-12-28T15:12:42.127Z,18.85
2022-12-28T15:13:51.362Z,16.22
2022-12-28T15:15:02.059Z,14.12
2022-12-28T15:16:13.238Z,16.97
2022-12-28T15:17:23.240Z,16.58
2022-12-28T15:19:49.219Z,17.43
2022-12-28T15:21:05.746Z,21.23
2022-12-28T15:22:15.927Z,23.42
2022-12-28T15:24:44.513Z,24.70
2022-12-28T15:27:03.734Z,27.43
2022-12-28T15:29:55.693Z,23.60
2022-12-28T15:31:58.912Z,19.53
2022-12-28T15:33:08.706Z,27.50
2022-12-28T15:35:33.958Z,23.60
2022-12-28T15:36:44.472Z,23.28
2022-12-28T15:37:53.140Z,22.00
2022-12-28T15:39:02.280Z,22.52
2022-12-28T15:40:12.548Z,22.82
2022-12-28T15:42:55.558Z,23.90
2022-12-28T15:45:21.017Z,19.73
2022-12-28T15:46:30.011Z,20.85
2022-12-28T15:48:54.363Z,20.80
2022-12-28T15:50:05.241Z,23.73
2022-12-28T15:53:38.427Z,21.92
2022-12-28T15:54:47.659Z,23.23
2022-12-28T15:56:01.429Z,21.40
2022-12-28T15:57:12.354Z,24.85
2022-12-28T15:58:25.515Z,25.53
2022-12-28T16:00:50.709Z,34.10
2022-12-28T16:01:59.828Z,29.42
2022-12-28T16:03:08.910Z,29.90
2022-12-28T16:05:32.921Z,27.40
2022-12-28T16:06:44.899Z,24.27
2022-12-28T16:09:28.435Z,24.60
2022-12-28T16:10:39.264Z,26.03
2022-12-28T16:11:55.437Z,25.88
2022-12-28T16:13:05.437Z,25.05
2022-12-28T16:14:16.284Z,29.83
2022-12-28T16:16:37.190Z,62.83
2022-12-28T16:17:54.996Z,27.73
2022-12-28T16:19:04.988Z,28.57
2022-12-28T16:20:14.412Z,30.85
2022-12-28T16:21:25.890Z,24.70
2022-12-28T16:23:50.705Z,25.12
2022-12-28T16:25:00.243Z,23.65
2022-12-28T16:27:26.326Z,25.00
2022-12-28T16:28:36.190Z,24.53
2022-12-28T16:31:03.211Z,30.47
2022-12-28T16:32:12.673Z,28.80
2022-12-28T16:33:22.300Z,28.02
2022-12-28T16:34:31.665Z,26.48
2022-12-28T16:35:41.362Z,25.55
2022-12-28T16:38:05.665Z,28.20
2022-12-28T16:39:17.660Z,56.60
2022-12-28T16:40:27.184Z,34.17
2022-12-28T16:41:37.571Z,30.23
2022-12-28T16:42:46.807Z,31.40
2022-12-28T16:45:15.105Z,24.25
2022-12-28T16:46:24.433Z,26.80
2022-12-28T16:48:48.876Z,23.55
2022-12-28T16:49:57.839Z,24.58
2022-12-28T16:51:07.989Z,25.98
2022-12-28T16:52:16.631Z,22.30
2022-12-28T16:53:25.781Z,26.92
2022-12-28T16:54:34.336Z,26.38
2022-12-28T16:55:44.860Z,27.93
2022-12-28T16:58:03.860Z,23.45
2022-12-28T17:00:36.605Z,24.87
2022-12-28T17:01:46.657Z,29.45
2022-12-28T17:02:56.235Z,30.80
2022-12-28T17:04:06.106Z,31.73
2022-12-28T17:05:16.971Z,26.85
2022-12-28T17:06:27.017Z,24.35
2022-12-28T17:07:39.261Z,22.20
2022-12-28T17:08:47.881Z,23.08
2022-12-28T17:09:56.506Z,21.17
2022-12-28T17:11:10.128Z,20.43
2022-12-28T17:12:18.835Z,20.43
2022-12-28T17:14:42.617Z,17.83
2022-12-28T17:15:52.627Z,17.22
2022-12-28T17:17:01.269Z,21.07
2022-12-28T17:18:11.125Z,17.72
2022-12-28T17:20:40.267Z,18.47
2022-12-28T17:21:49.682Z,18.55
2022-12-28T17:22:58.711Z,17.52
2022-12-28T17:24:09.000Z,17.45
2022-12-28T17:25:18.877Z,21.55
2022-12-28T17:26:28.778Z,20.47
2022-12-28T17:27:37.707Z,17.37
2022-12-28T17:28:46.419Z,15.87
2022-12-28T17:29:56.067Z,20.42
2022-12-28T17:32:23.582Z,17.85
2022-12-28T17:34:49.235Z,18.32
2022-12-28T17:35:57.925Z,16.37
2022-12-28T17:37:07.241Z,19.50
2022-12-28T17:38:16.666Z,17.82
2022-12-28T17:39:26.300Z,19.22
2022-12-28T17:41:53.716Z,26.70
2022-12-28T17:43:02.241Z,23.63
2022-12-28T17:44:11.368Z,20.23
2022-12-28T17:45:19.987Z,16.64
2022-12-28T17:46:29.991Z,17.03
2022-12-28T17:48:56.992Z,17.77
2022-12-28T17:50:18.066Z,19.42
2022-12-28T17:51:28.749Z,18.87
2022-12-28T17:52:37.280Z,16.83
2022-12-28T17:53:46.253Z,19.33
2022-12-28T17:54:55.345Z,17.50
2022-12-28T17:57:23.053Z,15.95
2022-12-28T17:58:32.429Z,18.95
2022-12-28T17:59:41.651Z,16.45
2022-12-28T18:02:12.743Z,18.72
2022-12-28T18:03:24.296Z,19.78
2022-12-28T18:04:35.052Z,19.36
2022-12-28T18:05:47.749Z,17.67
2022-12-28T18:06:56.839Z,19.15
2022-12-28T18:08:06.068Z,19.88
2022-12-28T18:09:15.201Z,21.55
2022-12-28T18:10:24.834Z,16.34
2022-12-28T18:11:33.483Z,18.42
2022-12-28T18:12:42.103Z,20.25
2022-12-28T18:13:50.670Z,16.87
2022-12-28T18:14:59.311Z,21.43
2022-12-28T18:16:11.781Z,18.80
2022-12-28T18:17:27.747Z,18.48
2022-12-28T18:18:36.422Z,21.97
2022-12-28T18:19:45.324Z,24.30
2022-12-28T18:21:01.327Z,21.65
2022-12-28T18:22:10.093Z,19.83
2022-12-28T18:23:18.660Z,22.83
2022-12-28T18:24:28.931Z,21.77
2022-12-28T18:26:52.475Z,21.00
2022-12-28T18:28:02.988Z,23.02
2022-12-28T18:30:27.480Z,20.23
2022-12-28T18:31:36.077Z,21.15
2022-12-28T18:32:45.342Z,22.67
2022-12-28T18:33:54.335Z,19.58
2022-12-28T18:36:18.897Z,21.30
2022-12-28T18:37:28.120Z,19.68
2022-12-28T18:38:39.953Z,21.63
2022-12-28T18:39:50.223Z,20.50
2022-12-28T18:41:00.899Z,17.85
2022-12-28T18:42:09.599Z,19.62
2022-12-28T18:44:33.240Z,20.38
2022-12-28T18:45:41.716Z,21.10
2022-12-28T18:48:07.684Z,20.45
2022-12-28T18:49:16.896Z,21.35
2022-12-28T18:51:41.089Z,20.40
2022-12-28T18:52:50.183Z,20.32
2022-12-28T18:53:59.769Z,19.83
2022-12-28T18:55:10.187Z,19.02
2022-12-28T18:57:36.125Z,21.78
2022-12-28T19:00:03.185Z,20.42
2022-12-28T19:02:33.195Z,19.27
2022-12-28T19:03:45.123Z,21.32
2022-12-28T19:04:54.438Z,20.65
2022-12-28T19:06:07.664Z,19.42
2022-12-28T19:07:16.599Z,20.03
2022-12-28T19:08:25.688Z,18.63
2022-12-28T19:09:34.363Z,18.50
2022-12-28T19:10:48.866Z,19.17
2022-12-28T19:11:58.572Z,22.03
2022-12-28T19:13:07.543Z,48.05
2022-12-28T19:14:16.667Z,58.25
2022-12-28T19:16:43.132Z,21.92
2022-12-28T19:19:06.743Z,22.12
2022-12-28T19:21:35.344Z,21.50
2022-12-28T19:22:45.241Z,22.90
2022-12-28T19:23:56.066Z,19.40
2022-12-28T19:26:14.377Z,24.65
2022-12-28T19:27:23.027Z,21.48
2022-12-28T19:28:32.944Z,22.58
2022-12-28T19:29:41.854Z,21.73
2022-12-28T19:32:05.958Z,23.52
2022-12-28T19:33:15.009Z,26.35
2022-12-28T19:34:23.732Z,38.30
2022-12-28T19:35:32.453Z,24.90
2022-12-28T19:36:42.375Z,22.12
2022-12-28T19:37:51.607Z,21.17
2022-12-28T19:39:00.224Z,18.60
2022-12-28T19:40:09.824Z,23.82
2022-12-28T19:41:19.671Z,20.98
2022-12-28T19:42:29.426Z,22.13
2022-12-28T19:43:40.841Z,20.08
2022-12-28T19:44:49.631Z,21.52
2022-12-28T19:47:21.229Z,20.67
2022-12-28T19:48:30.159Z,20.32
2022-12-28T19:50:53.831Z,21.98
2022-12-28T19:52:03.149Z,19.13
2022-12-28T19:53:12.724Z,19.80
2022-12-28T19:54:22.081Z,19.68
2022-12-28T19:56:49.173Z,21.82
2022-12-28T19:57:58.909Z,23.90
2022-12-28T19:59:07.539Z,23.90
2022-12-28T20:00:18.089Z,23.05
2022-12-28T20:02:43.185Z,20.07
2022-12-28T20:05:09.314Z,20.37
2022-12-28T20:06:21.695Z,21.10
2022-12-28T20:07:31.320Z,23.65
2022-12-28T20:08:43.346Z,24.48
2022-12-28T20:11:08.153Z,36.18
2022-12-28T20:12:18.769Z,30.68
2022-12-28T20:13:27.191Z,25.60
2022-12-28T20:15:51.900Z,20.97
2022-12-28T20:17:01.060Z,25.65
2022-12-28T20:19:26.174Z,24.10
2022-12-28T20:21:00.874Z,22.63
2022-12-28T20:21:45.407Z,20.90
2022-12-28T20:22:54.405Z,24.53
2022-12-28T20:24:04.911Z,23.18
2022-12-28T20:26:49.359Z,25.25
2022-12-28T20:29:34.032Z,21.23
2022-12-28T20:30:43.928Z,24.18
2022-12-28T20:31:52.711Z,25.87
2022-12-28T20:33:01.895Z,23.43
2022-12-28T20:35:29.137Z,23.90
2022-12-28T20:37:52.751Z,22.70
2022-12-28T20:39:02.905Z,24.05
2022-12-28T20:41:49.474Z,21.97
2022-12-28T20:43:17.316Z,22.10
2022-12-28T20:44:29.787Z,26.02
2022-12-28T20:45:38.902Z,23.30
2022-12-28T20:48:02.907Z,23.28
2022-12-28T20:50:27.178Z,23.67
2022-12-28T20:51:36.432Z,22.80
2022-12-28T20:52:44.954Z,22.83
2022-12-28T20:53:54.209Z,22.58
2022-12-28T20:55:03.440Z,25.72
2022-12-28T20:56:14.426Z,26.80
2022-12-28T20:58:39.382Z,24.27
2022-12-28T20:59:49.026Z,21.55
2022-12-28T21:01:03.625Z,27.45
2022-12-28T21:03:28.648Z,26.65
2022-12-28T21:04:37.675Z,22.75
2022-12-28T21:05:47.487Z,25.55
2022-12-28T21:08:11.161Z,25.12
2022-12-28T21:09:20.292Z,26.18
2022-12-28T21:10:29.634Z,27.50
2022-12-28T21:11:38.771Z,27.23
2022-12-28T21:12:48.097Z,22.30
2022-12-28T21:13:57.151Z,25.48
2022-12-28T21:16:22.777Z,21.35
2022-12-28T21:17:33.730Z,18.43
2022-12-28T21:18:43.116Z,19.10
2022-12-28T21:19:52.371Z,17.70
2022-12-28T21:21:03.281Z,28.85
2022-12-28T21:22:11.840Z,24.52
2022-12-28T21:23:21.278Z,23.60
2022-12-28T21:24:30.264Z,22.98
2022-12-28T21:25:38.979Z,28.42
2022-12-28T21:26:47.800Z,23.32
2022-12-28T21:27:56.345Z,24.88
2022-12-28T21:29:05.315Z,34.55
2022-12-28T21:30:14.837Z,35.80
2022-12-28T21:31:23.633Z,24.30
2022-12-28T21:32:32.975Z,24.07
2022-12-28T21:33:42.138Z,20.77
2022-12-28T21:34:50.707Z,20.40
2022-12-28T21:36:05.313Z,21.68
2022-12-28T21:37:32.214Z,21.20
2022-12-28T21:38:42.774Z,20.75
2022-12-28T21:39:51.377Z,19.40
2022-12-28T21:41:02.701Z,18.85
2022-12-28T21:42:11.240Z,19.73
2022-12-28T21:43:20.122Z,19.10
2022-12-28T21:44:28.976Z,20.43
2022-12-28T21:45:38.820Z,19.48
2022-12-28T21:46:50.797Z,18.83
2022-12-28T21:49:34.389Z,18.92
2022-12-28T21:50:44.163Z,20.73
2022-12-28T21:51:53.692Z,20.06
2022-12-28T21:54:20.452Z,21.48
2022-12-28T21:55:44.813Z,21.17
2022-12-28T21:56:56.330Z,21.28
2022-12-28T21:58:05.548Z,20.30
2022-12-28T21:59:15.210Z,20.90
2022-12-28T22:00:42.855Z,21.33
2022-12-28T22:02:11.482Z,19.30
2022-12-28T22:03:40.555Z,24.15
2022-12-28T22:06:17.031Z,23.35
2022-12-28T22:07:25.562Z,20.50
2022-12-28T22:08:53.247Z,22.23
2022-12-28T22:10:20.228Z,21.77
2022-12-28T22:11:48.794Z,20.44
2022-12-28T22:12:58.091Z,23.60
2022-12-28T22:14:07.749Z,23.02
2022-12-28T22:15:37.832Z,25.00
2022-12-28T22:16:46.706Z,18.73
2022-12-28T22:19:14.380Z,16.40
2022-12-28T22:20:26.547Z,20.90
2022-12-28T22:21:35.636Z,17.35
2022-12-28T22:22:44.273Z,19.08